Tuesday, November 25, 2014
01:36 UTC
  |  Log In   |  Register Free
Airport Search:

Lenawee County Airport
(KADG)

Lenawee County Airport Diagram
No Airport Diagram Available

FAA data valid effective November 13, 2014 - January 08, 2015 (unless otherwise noted).

 
 
 
 
 
 
 
 
 
 
 
 
 
 

Current Aviation Weather for Lenawee County Airport (KADG)

The most recent METAR observation for KADG was updated at: 0014
METAR Summary (Translated METAR)
KADG
242353Z AUTO 25017G30KT 10SM OVC023 02/M02 A2960 RMK AO2 PK WND 25037/2340 SLP030 60000 T00221022 10078 20022 51042
KUSE
250015Z AUTO 24022G35KT 10SM FEW015 SCT027 OVC035 02/M02 A2964 RMK AO2
(15.6 nm SW from KADG)
KDUH
242354Z AUTO 24016G23KT 10SM OVC022 03/00 A2962 RMK AO2
(20.5 nm SE from KADG)
TAF
No TAF information found within 50 nm of KADG
  Airport Weather Conditions for KADG

 Current Weather at ADG
35° F
Overcast
West winds at 19.6 mph
ADG NOAA Radar

Pressure: 29.64 in
Humidity: 76%
Wind: from the West at 19.6 gusting to 28.8 MPH (17 gusting to 25 KT)
Dew Point: 28.0°F
Visibility: 10.00 mi


Airport Weather Forecast for KADG

Translated METAR and TAF for KADG
Translated METAR for KADG (0131 UTC 25 November 2014)
found at http://aviationweather.gov/adds/metars/
 
METAR text: KADG 250053Z AUTO 25017G25KT 10SM OVC020 02/M02 A2964 RMK AO2 PK WND 26039/0014 SLP042 T00171022
Conditions at: KADG (ADRIAN , MI, US) observed 0053 UTC 25 November 2014
Temperature: 1.7°C (35°F)
Dewpoint: -2.2°C (28°F) [RH = 75%]
Pressure (altimeter): 29.64 inches Hg (1003.8 mb)
[Sea-level pressure: 1004.2 mb]
Winds: from the WSW (250 degrees) at 20 MPH (17 knots; 8.8 m/s)
gusting to 29 MPH (25 knots; 13.0 m/s)
Visibility: 10 or more miles (16+ km)
Ceiling: 2000 feet AGL
Clouds: overcast cloud deck at 2000 feet AGL
Weather: automated observation with no human augmentation;
there may or may not be significant weather present at this time
Translated TAF for KADG

There is no translated TAF available for this airport

Find All Airport Services Find A Hotel Find A Rental Car Find A Golf Course Find A Restaurant $100 Hamburger



FBO's on the Field
FBO Company Facility Photos Services Transportation Aviation Fuel Prices: Prices include tax
Catering Weather Repair Courtesy Rental Type 100LL JetA JetA+ MOGAS 8087
 
Lenawee County Airport

This FBO has not yet been rated
FS:Avfuel
Last Updated: Nov-19
Login to update fuel prices
SS:
Contact Lenawee County AirportMore FBO Information
 
Add another FBO Facility Photos Catering Weather Repair Courtesy Rental Type 100LL JetA JetA+ MOGAS 8087
Services Transportation Aviation Fuel Prices: Prices include tax


model-print
model-print
model-print
model-print